Startpagina
METAR-TAF:

METAR-TAF

Vliegvelden :

Portage Glacier, Alaska, Verenigde Staten

breedte: 60-47N, lengte: 148-50W, hoogte: 29 m

Actueel weer

Dit bericht is 18 minuten geleden gemaakt, om 12:59 UTC
Weinig wind
Temperatuur 2°C
Vochtigheid 100%
Druk 984 hPa
Zicht: 2.8 km
Weinig wolken op 200 ft
Gebroken wolken op 4800 ft
Geheel bewolkt op 7000 ft
nevel

METAR: PATO 181259Z AUTO 00000KT 1 3/4SM BR FEW002 BKN048 OVC070 02/02 A2907 RMK AO2 T00170017 TSNO $

Tijdstip: 05:17 (13:17 UTC)


TAF: ontbreekt

Waarnemingen en weersverwachtingen van meer dan 4000 vliegvelden (METAR en TAF).

De beschikbare stations zijn de gele en rode punten op de kaart.

Ga met uw muis naar het station om de naam te zien.

Klik dan om waarnemingen en weersverwachtingen te zien.

kaart wijzigen: klik op de groene knoppen met een zwart kruis om in te zoomen, op de groene knop met een streepje om uit te zoomen of op de groene pijlen voor aangrenzende kaarten.


METAR-TAF: